createdAt,value
2022-11-05T00:00:34.604Z,53.70
2022-11-05T00:03:21.775Z,53.80
2022-11-05T00:06:10.792Z,53.70
2022-11-05T00:08:58.227Z,53.70
2022-11-05T00:11:45.215Z,53.80
2022-11-05T00:14:32.224Z,53.80
2022-11-05T00:16:59.310Z,53.80
2022-11-05T00:19:26.324Z,53.80
2022-11-05T00:22:13.238Z,53.80
2022-11-05T00:25:00.116Z,53.80
2022-11-05T00:27:27.192Z,53.80
2022-11-05T00:29:54.250Z,53.80
2022-11-05T00:32:21.220Z,53.80
2022-11-05T00:34:48.250Z,53.80
2022-11-05T00:37:15.264Z,53.80
2022-11-05T00:39:42.319Z,53.80
2022-11-05T00:42:29.189Z,53.70
2022-11-05T00:45:02.556Z,53.80
2022-11-05T00:47:50.565Z,53.70
2022-11-05T00:50:18.903Z,53.70
2022-11-05T00:52:56.515Z,53.80
2022-11-05T00:55:26.427Z,53.80
2022-11-05T00:57:53.423Z,53.80
2022-11-05T01:00:21.441Z,53.80
2022-11-05T01:02:48.567Z,53.70
2022-11-05T01:05:15.724Z,53.70
2022-11-05T01:07:42.715Z,53.70
2022-11-05T01:10:09.888Z,53.80
2022-11-05T01:12:37.143Z,53.80
2022-11-05T01:15:04.595Z,53.70
2022-11-05T01:17:31.613Z,53.70
2022-11-05T01:19:58.674Z,53.80
2022-11-05T01:22:25.783Z,53.80
2022-11-05T01:24:52.837Z,53.80
2022-11-05T01:27:19.935Z,53.80
2022-11-05T01:29:47.010Z,53.80
2022-11-05T01:32:14.493Z,53.90
2022-11-05T01:34:41.528Z,53.90
2022-11-05T01:37:08.883Z,53.90
2022-11-05T01:39:35.897Z,54.00
2022-11-05T01:42:03.151Z,53.90
2022-11-05T01:44:55.232Z,53.90
2022-11-05T01:47:34.909Z,53.90
2022-11-05T01:50:07.143Z,53.80
2022-11-05T01:52:35.966Z,53.80
2022-11-05T01:55:04.773Z,53.80
2022-11-05T01:57:32.956Z,53.80
2022-11-05T02:00:01.220Z,53.80
2022-11-05T02:02:29.978Z,53.80
2022-11-05T02:05:05.516Z,53.70
2022-11-05T02:07:33.998Z,53.70
2022-11-05T02:10:11.120Z,53.70
2022-11-05T02:12:40.733Z,53.70
2022-11-05T02:15:10.532Z,53.70
2022-11-05T02:18:05.807Z,53.70
2022-11-05T02:21:12.529Z,53.70
2022-11-05T02:24:06.987Z,53.70
2022-11-05T02:26:57.220Z,53.70
2022-11-05T02:29:52.892Z,53.70
2022-11-05T02:32:37.939Z,53.70
2022-11-05T02:35:22.819Z,53.70
2022-11-05T02:37:59.033Z,53.70
2022-11-05T02:40:47.958Z,53.70
2022-11-05T02:43:45.928Z,53.60
2022-11-05T02:46:37.170Z,53.60
2022-11-05T02:49:32.450Z,53.70
2022-11-05T02:52:06.492Z,53.60
2022-11-05T02:54:43.905Z,53.60
2022-11-05T02:57:10.937Z,53.60
2022-11-05T02:59:37.983Z,53.60
2022-11-05T03:02:05.924Z,53.60
2022-11-05T03:04:33.442Z,53.60
2022-11-05T03:07:20.593Z,53.60
2022-11-05T03:10:18.780Z,53.60
2022-11-05T03:13:14.365Z,53.50
2022-11-05T03:16:00.078Z,53.60
2022-11-05T03:18:51.006Z,53.60
2022-11-05T03:21:23.549Z,53.50
2022-11-05T03:23:59.788Z,53.40
2022-11-05T03:26:41.737Z,53.50
2022-11-05T03:29:30.450Z,53.40
2022-11-05T03:32:02.697Z,53.40
2022-11-05T03:34:35.521Z,53.30
2022-11-05T03:37:04.252Z,53.30
2022-11-05T03:39:37.385Z,53.30
2022-11-05T03:42:07.465Z,53.20
2022-11-05T03:44:38.787Z,53.20
2022-11-05T03:47:15.550Z,53.10
2022-11-05T03:49:58.529Z,53.20
2022-11-05T03:52:30.142Z,53.20
2022-11-05T03:54:57.167Z,53.10
2022-11-05T03:57:36.667Z,53.10
2022-11-05T04:00:07.703Z,53.10
2022-11-05T04:02:35.087Z,53.10
2022-11-05T04:05:02.267Z,53.10
2022-11-05T04:07:49.108Z,53.10
2022-11-05T04:10:36.063Z,53.00
2022-11-05T04:13:22.933Z,53.00
2022-11-05T04:16:10.181Z,53.00
2022-11-05T04:18:37.672Z,53.00
2022-11-05T04:21:26.126Z,53.00
2022-11-05T04:24:08.915Z,53.00
2022-11-05T04:26:41.473Z,53.00
2022-11-05T04:29:28.446Z,53.00
2022-11-05T04:31:55.522Z,53.00
2022-11-05T04:34:22.962Z,53.00
2022-11-05T04:36:51.589Z,53.00
2022-11-05T04:39:19.970Z,52.90
2022-11-05T04:41:48.362Z,53.00
2022-11-05T04:44:16.470Z,52.90
2022-11-05T04:46:43.928Z,52.90
2022-11-05T04:49:10.937Z,52.90
2022-11-05T04:51:37.925Z,52.90
2022-11-05T04:54:04.978Z,52.90
2022-11-05T04:56:32.058Z,52.90
2022-11-05T04:58:59.076Z,52.90
2022-11-05T05:01:26.410Z,53.00
2022-11-05T05:03:54.970Z,53.00
2022-11-05T05:06:22.754Z,53.00
2022-11-05T05:08:51.122Z,53.00
2022-11-05T05:11:20.336Z,53.00
2022-11-05T05:13:48.227Z,53.00
2022-11-05T05:16:24.931Z,53.00
2022-11-05T05:18:52.808Z,53.00
2022-11-05T05:21:41.664Z,53.00
2022-11-05T05:24:19.900Z,52.90
2022-11-05T05:26:49.353Z,52.90
2022-11-05T05:29:17.666Z,52.90
2022-11-05T05:31:44.743Z,52.90
2022-11-05T05:34:13.192Z,52.90
2022-11-05T05:36:40.387Z,52.80
2022-11-05T05:39:10.921Z,52.50
2022-11-05T05:41:38.179Z,52.30
2022-11-05T05:44:06.330Z,52.10
2022-11-05T05:46:33.331Z,52.00
2022-11-05T05:49:00.381Z,51.80
2022-11-05T05:51:27.506Z,51.70
2022-11-05T05:53:55.402Z,51.60
2022-11-05T05:56:22.540Z,51.60
2022-11-05T05:58:49.691Z,51.60
2022-11-05T06:01:19.615Z,51.60
2022-11-05T06:03:48.467Z,51.50
2022-11-05T06:06:19.878Z,51.40
2022-11-05T06:08:47.615Z,51.30
2022-11-05T06:11:15.114Z,51.20
2022-11-05T06:13:42.218Z,51.10
2022-11-05T06:16:10.675Z,51.00
2022-11-05T06:18:38.215Z,50.80
2022-11-05T06:21:08.610Z,50.70
2022-11-05T06:23:36.146Z,50.60
2022-11-05T06:26:06.068Z,50.50
2022-11-05T06:28:33.794Z,50.50
2022-11-05T06:31:01.929Z,50.30
2022-11-05T06:33:29.368Z,50.30
2022-11-05T06:35:59.635Z,50.10
2022-11-05T06:38:26.744Z,50.10
2022-11-05T06:40:53.819Z,50.00
2022-11-05T06:43:20.834Z,49.90
2022-11-05T06:45:47.837Z,49.90
2022-11-05T06:48:14.836Z,49.80
2022-11-05T06:50:45.334Z,49.60
2022-11-05T06:53:13.032Z,49.50
2022-11-05T06:55:40.630Z,49.50
2022-11-05T06:58:07.688Z,49.30
2022-11-05T07:00:34.909Z,49.20
2022-11-05T07:03:10.870Z,49.20
2022-11-05T07:05:41.743Z,49.10
2022-11-05T07:08:08.800Z,49.00
2022-11-05T07:10:35.832Z,49.00
2022-11-05T07:13:07.748Z,48.90
2022-11-05T07:15:36.732Z,48.80
2022-11-05T07:18:04.225Z,48.80
2022-11-05T07:20:34.100Z,48.70
2022-11-05T07:23:14.327Z,48.70
2022-11-05T07:25:42.604Z,48.60
2022-11-05T07:28:11.017Z,48.50
2022-11-05T07:30:38.704Z,48.40
2022-11-05T07:33:05.772Z,48.20
2022-11-05T07:35:32.941Z,48.10
2022-11-05T07:38:00.145Z,48.00
2022-11-05T07:40:29.082Z,47.90
2022-11-05T07:42:58.786Z,47.70
2022-11-05T07:45:27.285Z,47.60
2022-11-05T07:48:00.554Z,47.50
2022-11-05T07:50:31.442Z,47.30
2022-11-05T07:53:05.438Z,47.20
2022-11-05T07:55:32.851Z,47.00
2022-11-05T07:57:59.931Z,46.90
2022-11-05T08:00:28.057Z,46.80
2022-11-05T08:03:13.820Z,46.60
2022-11-05T08:05:44.831Z,46.50
2022-11-05T08:08:15.719Z,46.50
2022-11-05T08:10:43.248Z,46.30
2022-11-05T08:13:11.197Z,46.20
2022-11-05T08:15:39.151Z,46.10
2022-11-05T08:18:08.613Z,46.00
2022-11-05T08:20:36.285Z,45.90
2022-11-05T08:23:03.333Z,45.90
2022-11-05T08:25:30.482Z,45.90
2022-11-05T08:28:03.563Z,45.80
2022-11-05T08:30:31.121Z,45.70
2022-11-05T08:32:59.832Z,45.60
2022-11-05T08:35:28.270Z,45.50
2022-11-05T08:38:03.731Z,45.50
2022-11-05T08:40:32.554Z,45.40
2022-11-05T08:43:01.059Z,45.30
2022-11-05T08:45:28.534Z,45.20
2022-11-05T08:48:06.438Z,45.20
2022-11-05T08:50:34.177Z,45.10
2022-11-05T08:53:01.261Z,45.00
2022-11-05T08:55:28.673Z,45.00
2022-11-05T08:57:57.485Z,44.90
2022-11-05T09:00:26.111Z,44.70
2022-11-05T09:02:53.186Z,44.60
2022-11-05T09:05:20.499Z,44.60
2022-11-05T09:07:47.511Z,44.40
2022-11-05T09:10:14.603Z,44.40
2022-11-05T09:12:41.770Z,44.30
2022-11-05T09:15:09.668Z,44.20
2022-11-05T09:17:36.738Z,44.10
2022-11-05T09:20:05.049Z,44.10
2022-11-05T09:22:32.394Z,44.10
2022-11-05T09:24:59.353Z,44.00
2022-11-05T09:27:26.724Z,44.00
2022-11-05T09:29:53.744Z,44.00
2022-11-05T09:32:21.136Z,43.80
2022-11-05T09:34:49.099Z,43.80
2022-11-05T09:37:16.578Z,43.70
2022-11-05T09:39:43.552Z,43.70
2022-11-05T09:42:15.420Z,43.70
2022-11-05T09:44:59.429Z,43.50
2022-11-05T09:47:43.221Z,43.50
2022-11-05T09:50:17.536Z,43.50
2022-11-05T09:52:45.034Z,43.40
2022-11-05T09:55:26.086Z,43.40
2022-11-05T09:57:57.280Z,43.20
2022-11-05T10:00:24.398Z,43.20
2022-11-05T10:02:57.413Z,43.20
2022-11-05T10:05:26.402Z,43.10
2022-11-05T10:08:04.802Z,43.10
2022-11-05T10:10:43.387Z,43.00
2022-11-05T10:13:34.225Z,43.00
2022-11-05T10:16:07.602Z,42.90
2022-11-05T10:18:38.801Z,43.00
2022-11-05T10:21:06.801Z,42.90
2022-11-05T10:23:33.954Z,42.90
2022-11-05T10:26:09.360Z,42.90
2022-11-05T10:28:36.646Z,42.90
2022-11-05T10:31:07.628Z,42.90
2022-11-05T10:33:43.256Z,42.80
2022-11-05T10:36:26.057Z,42.70
2022-11-05T10:38:57.177Z,42.70
2022-11-05T10:42:03.888Z,42.60
2022-11-05T10:44:58.845Z,42.60
2022-11-05T10:47:50.468Z,42.50
2022-11-05T10:50:26.995Z,42.40
2022-11-05T10:53:15.276Z,42.40
2022-11-05T10:55:48.369Z,42.20
2022-11-05T10:58:29.040Z,42.20
2022-11-05T11:01:08.089Z,42.30
2022-11-05T11:03:44.230Z,42.20
2022-11-05T11:06:29.285Z,42.80
2022-11-05T11:08:58.609Z,42.10
2022-11-05T11:11:36.732Z,42.10
2022-11-05T11:14:22.342Z,41.90
2022-11-05T11:16:51.403Z,41.90
2022-11-05T11:19:27.703Z,41.90
2022-11-05T11:22:18.381Z,41.90
2022-11-05T11:24:48.513Z,41.80
2022-11-05T11:27:33.518Z,41.90
2022-11-05T11:30:05.496Z,41.90
2022-11-05T11:32:36.443Z,41.80
2022-11-05T11:35:05.687Z,41.90
2022-11-05T11:37:41.926Z,42.00
2022-11-05T11:40:20.608Z,42.00
2022-11-05T11:42:52.595Z,41.90
2022-11-05T11:45:36.693Z,41.90
2022-11-05T11:48:08.328Z,41.90
2022-11-05T11:50:41.728Z,41.90
2022-11-05T11:53:35.713Z,42.00
2022-11-05T11:56:18.486Z,42.00
2022-11-05T11:58:48.586Z,42.00
2022-11-05T12:01:55.436Z,42.00
2022-11-05T12:04:42.462Z,42.00
2022-11-05T12:07:40.480Z,42.00
2022-11-05T12:10:35.735Z,42.00
2022-11-05T12:13:30.454Z,42.00
2022-11-05T12:16:07.702Z,42.00
2022-11-05T12:19:12.380Z,42.00
2022-11-05T12:21:58.307Z,42.00
2022-11-05T12:24:51.985Z,42.00
2022-11-05T12:27:50.202Z,42.00
2022-11-05T12:30:20.318Z,42.10
2022-11-05T12:33:17.992Z,42.10
2022-11-05T12:36:15.910Z,42.20
2022-11-05T12:39:22.660Z,42.10
2022-11-05T12:42:02.987Z,42.10
2022-11-05T12:44:57.316Z,42.10
2022-11-05T12:47:46.989Z,42.10
2022-11-05T12:50:32.247Z,42.10
2022-11-05T12:53:35.422Z,42.10
2022-11-05T12:56:13.698Z,42.00
2022-11-05T12:58:45.593Z,42.10
2022-11-05T13:01:19.886Z,42.10
2022-11-05T13:04:01.668Z,42.10
2022-11-05T13:06:40.399Z,42.20
2022-11-05T13:09:19.925Z,42.30
2022-11-05T13:11:58.174Z,42.30
2022-11-05T13:14:47.508Z,42.30
2022-11-05T13:17:29.749Z,42.30
2022-11-05T13:20:17.289Z,42.30
2022-11-05T13:22:56.610Z,42.30
2022-11-05T13:25:26.699Z,42.40
2022-11-05T13:28:25.472Z,42.40
2022-11-05T13:30:58.008Z,42.40
2022-11-05T13:33:38.188Z,42.50
2022-11-05T13:36:48.390Z,42.40
2022-11-05T13:39:43.195Z,42.40
2022-11-05T13:42:48.240Z,42.50
2022-11-05T13:45:54.975Z,42.40
2022-11-05T13:48:53.770Z,42.50
2022-11-05T13:51:39.590Z,42.50
2022-11-05T13:54:46.723Z,42.50
2022-11-05T13:57:32.227Z,42.50
2022-11-05T14:00:27.371Z,42.50
2022-11-05T14:03:05.362Z,42.50
2022-11-05T14:05:39.888Z,42.50
2022-11-05T14:08:15.809Z,42.60
2022-11-05T14:10:45.925Z,42.60
2022-11-05T14:13:36.273Z,42.60
2022-11-05T14:16:23.466Z,42.60
2022-11-05T14:19:15.053Z,42.60
2022-11-05T14:21:53.863Z,42.70
2022-11-05T14:24:29.264Z,42.70
2022-11-05T14:27:36.018Z,42.70
2022-11-05T14:30:42.800Z,42.80
2022-11-05T14:33:31.224Z,42.80
2022-11-05T14:36:28.390Z,42.80
2022-11-05T14:39:04.298Z,42.90
2022-11-05T14:41:31.707Z,43.00
2022-11-05T14:44:06.982Z,43.00
2022-11-05T14:46:43.440Z,43.00
2022-11-05T14:49:20.084Z,43.00
2022-11-05T14:51:51.546Z,43.10
2022-11-05T14:54:43.987Z,43.10
2022-11-05T14:57:50.863Z,43.20
2022-11-05T15:00:42.165Z,43.20
2022-11-05T15:03:31.741Z,43.30
2022-11-05T15:06:24.465Z,43.80
2022-11-05T15:09:15.092Z,43.40
2022-11-05T15:12:05.292Z,43.40
2022-11-05T15:14:40.607Z,43.50
2022-11-05T15:17:29.800Z,43.60
2022-11-05T15:20:09.307Z,43.70
2022-11-05T15:22:40.856Z,43.70
2022-11-05T15:25:21.508Z,43.80
2022-11-05T15:28:23.498Z,43.90
2022-11-05T15:31:00.148Z,44.00
2022-11-05T15:33:27.336Z,44.00
2022-11-05T15:35:55.171Z,44.60
2022-11-05T15:38:29.956Z,44.20
2022-11-05T15:40:59.345Z,44.20
2022-11-05T15:43:26.652Z,44.30
2022-11-05T15:46:14.186Z,44.20
2022-11-05T15:48:41.433Z,44.40
2022-11-05T15:51:10.009Z,44.40
2022-11-05T15:54:23.978Z,44.40
2022-11-05T15:56:51.332Z,44.50
2022-11-05T15:59:23.875Z,44.50
2022-11-05T16:02:01.184Z,44.60
2022-11-05T16:04:32.223Z,44.60
2022-11-05T16:07:06.881Z,44.70
2022-11-05T16:09:38.688Z,44.70
2022-11-05T16:12:31.567Z,44.80
2022-11-05T16:15:22.318Z,44.80
2022-11-05T16:17:56.508Z,44.90
2022-11-05T16:20:33.856Z,44.90
2022-11-05T16:23:23.341Z,44.90
2022-11-05T16:25:51.421Z,45.00
2022-11-05T16:28:24.601Z,45.00
2022-11-05T16:30:53.674Z,45.10
2022-11-05T16:33:20.827Z,45.10
2022-11-05T16:35:49.828Z,45.10
2022-11-05T16:38:18.477Z,45.20
2022-11-05T16:40:45.551Z,45.20
2022-11-05T16:43:20.066Z,45.30
2022-11-05T16:45:47.364Z,45.30
2022-11-05T16:48:15.630Z,45.30
2022-11-05T16:50:43.040Z,45.40
2022-11-05T16:53:10.268Z,45.40
2022-11-05T16:55:39.208Z,45.40
2022-11-05T16:58:15.271Z,45.50
2022-11-05T17:00:42.339Z,45.60
2022-11-05T17:03:09.396Z,45.60
2022-11-05T17:05:36.364Z,45.60
2022-11-05T17:08:03.696Z,45.70
2022-11-05T17:10:30.910Z,45.70
2022-11-05T17:12:57.951Z,45.70
2022-11-05T17:15:31.165Z,45.80
2022-11-05T17:17:59.122Z,46.30
2022-11-05T17:20:40.744Z,45.90
2022-11-05T17:23:11.283Z,45.80
2022-11-05T17:25:39.770Z,45.80
2022-11-05T17:28:10.546Z,45.80
2022-11-05T17:30:41.418Z,45.80
2022-11-05T17:33:11.152Z,45.80
2022-11-05T17:35:40.324Z,45.80
2022-11-05T17:38:07.788Z,45.90
2022-11-05T17:40:36.571Z,45.90
2022-11-05T17:43:04.345Z,45.90
2022-11-05T17:45:31.661Z,45.90
2022-11-05T17:47:58.745Z,45.90
2022-11-05T17:50:25.875Z,45.90
2022-11-05T17:52:52.873Z,46.00
2022-11-05T17:55:19.949Z,46.00
2022-11-05T17:57:48.459Z,46.10
2022-11-05T18:00:21.562Z,46.10
2022-11-05T18:02:49.813Z,46.10
2022-11-05T18:05:18.525Z,46.10
2022-11-05T18:07:46.561Z,46.10
2022-11-05T18:10:14.046Z,46.20
2022-11-05T18:12:41.569Z,46.10
2022-11-05T18:15:09.188Z,46.20
2022-11-05T18:17:36.402Z,46.20
2022-11-05T18:20:04.850Z,46.20
2022-11-05T18:22:31.883Z,46.20
2022-11-05T18:24:58.930Z,46.20
2022-11-05T18:27:27.791Z,46.30
2022-11-05T18:29:55.096Z,46.30
2022-11-05T18:32:22.203Z,46.30
2022-11-05T18:34:49.221Z,46.30
2022-11-05T18:37:16.687Z,46.30
2022-11-05T18:39:44.334Z,46.40
2022-11-05T18:42:11.434Z,46.40
2022-11-05T18:44:39.660Z,46.40
2022-11-05T18:47:07.063Z,46.40
2022-11-05T18:49:34.147Z,46.40
2022-11-05T18:52:01.128Z,46.50
2022-11-05T18:54:28.302Z,46.50
2022-11-05T18:56:55.366Z,46.50
2022-11-05T18:59:36.314Z,46.50
2022-11-05T19:02:05.890Z,46.50
2022-11-05T19:04:34.794Z,46.50
2022-11-05T19:07:05.203Z,46.60
2022-11-05T19:09:37.506Z,46.60
2022-11-05T19:12:05.998Z,46.60
2022-11-05T19:14:33.620Z,46.70
2022-11-05T19:17:01.486Z,46.70
2022-11-05T19:19:28.823Z,46.80
2022-11-05T19:21:55.862Z,46.80
2022-11-05T19:24:22.936Z,46.80
2022-11-05T19:26:50.541Z,46.80
2022-11-05T19:29:17.833Z,46.80
2022-11-05T19:31:44.945Z,46.70
2022-11-05T19:34:13.499Z,46.70
2022-11-05T19:36:41.553Z,46.70
2022-11-05T19:39:11.520Z,46.70
2022-11-05T19:41:38.589Z,46.70
2022-11-05T19:44:05.768Z,46.70
2022-11-05T19:46:33.800Z,46.70
2022-11-05T19:49:01.774Z,46.80
2022-11-05T19:51:31.846Z,46.80
2022-11-05T19:54:00.652Z,46.80
2022-11-05T19:56:30.640Z,46.80
2022-11-05T19:58:58.724Z,46.80
2022-11-05T20:01:27.846Z,46.80
2022-11-05T20:03:56.752Z,46.90
2022-11-05T20:06:30.912Z,46.90
2022-11-05T20:09:20.501Z,46.90
2022-11-05T20:11:48.476Z,46.90
2022-11-05T20:14:15.785Z,46.90
2022-11-05T20:16:43.666Z,46.90
2022-11-05T20:19:13.759Z,46.90
2022-11-05T20:21:40.926Z,47.00
2022-11-05T20:24:08.406Z,47.00
2022-11-05T20:26:35.592Z,47.00
2022-11-05T20:29:03.178Z,47.10
2022-11-05T20:31:30.966Z,47.00
2022-11-05T20:33:58.122Z,47.00
2022-11-05T20:36:26.434Z,47.10
2022-11-05T20:38:56.550Z,47.10
2022-11-05T20:41:24.702Z,47.10
2022-11-05T20:43:52.070Z,47.00
2022-11-05T20:46:21.294Z,47.10
2022-11-05T20:48:48.928Z,47.10
2022-11-05T20:51:18.507Z,47.10
2022-11-05T20:53:46.428Z,47.20
2022-11-05T20:56:19.224Z,47.20
2022-11-05T20:58:47.455Z,47.20
2022-11-05T21:01:16.721Z,47.20
2022-11-05T21:03:45.244Z,47.20
2022-11-05T21:06:13.149Z,47.20
2022-11-05T21:08:40.947Z,47.20
2022-11-05T21:11:08.444Z,47.20
2022-11-05T21:13:36.104Z,47.20
2022-11-05T21:16:06.135Z,47.20
2022-11-05T21:18:35.216Z,47.20
2022-11-05T21:21:09.757Z,47.20
2022-11-05T21:23:36.899Z,47.20
2022-11-05T21:26:08.852Z,47.20
2022-11-05T21:28:38.829Z,47.20
2022-11-05T21:31:06.971Z,47.30
2022-11-05T21:33:34.360Z,47.30
2022-11-05T21:36:09.997Z,47.30
2022-11-05T21:38:37.363Z,47.20
2022-11-05T21:41:05.065Z,47.20
2022-11-05T21:43:32.230Z,47.30
2022-11-05T21:46:03.930Z,47.30
2022-11-05T21:48:31.577Z,47.30
2022-11-05T21:51:18.496Z,47.30
2022-11-05T21:54:05.433Z,47.30
2022-11-05T21:56:52.804Z,47.30
2022-11-05T21:59:42.048Z,47.30
2022-11-05T22:02:11.464Z,47.30
2022-11-05T22:04:41.504Z,47.40
2022-11-05T22:07:10.371Z,47.40
2022-11-05T22:09:37.671Z,47.40
2022-11-05T22:12:05.710Z,47.40
2022-11-05T22:14:32.965Z,47.40
2022-11-05T22:17:00.335Z,47.40
2022-11-05T22:19:27.950Z,47.40
2022-11-05T22:21:54.973Z,47.40
2022-11-05T22:24:22.270Z,47.50
2022-11-05T22:26:50.137Z,47.50
2022-11-05T22:29:22.205Z,47.50
2022-11-05T22:31:49.354Z,47.60
2022-11-05T22:34:16.708Z,47.60
2022-11-05T22:36:43.752Z,47.60
2022-11-05T22:39:12.121Z,47.60
2022-11-05T22:41:39.885Z,47.60
2022-11-05T22:44:07.379Z,47.60
2022-11-05T22:46:34.416Z,47.60
2022-11-05T22:49:01.465Z,47.60
2022-11-05T22:51:31.424Z,47.70
2022-11-05T22:53:59.160Z,47.70
2022-11-05T22:56:28.653Z,47.60
2022-11-05T22:58:56.607Z,47.60
2022-11-05T23:01:25.006Z,47.60
2022-11-05T23:03:54.941Z,47.60
2022-11-05T23:06:44.233Z,47.60
2022-11-05T23:09:43.558Z,47.60
2022-11-05T23:12:28.662Z,47.60
2022-11-05T23:14:57.841Z,47.60
2022-11-05T23:17:45.092Z,47.60
2022-11-05T23:20:19.172Z,47.60
2022-11-05T23:23:06.116Z,47.60
2022-11-05T23:25:33.168Z,47.70
2022-11-05T23:28:00.162Z,47.60
2022-11-05T23:30:27.799Z,47.70
2022-11-05T23:32:56.084Z,47.70
2022-11-05T23:35:42.964Z,47.70
2022-11-05T23:38:30.094Z,47.70
2022-11-05T23:41:24.427Z,47.70
2022-11-05T23:44:11.733Z,47.60
2022-11-05T23:46:58.652Z,47.70
2022-11-05T23:49:26.123Z,47.70
2022-11-05T23:51:53.174Z,47.70
2022-11-05T23:54:20.258Z,47.70
2022-11-05T23:56:47.278Z,47.70
2022-11-05T23:59:14.286Z,47.70
